Time;durP1;ratioP1;P1;durP2;ratioP2;P2;SDS_P1;SDS_P2;PMS_P1;PMS_P2;Temp;Humidity;BMP_temperature;BMP_pressure;BME280_temperature;BME280_humidity;BME280_pressure;Samples;Min_cycle;Max_cycle;Signal;HPM_P1;HPM_P2
2022/01/30 00:02:25;;;;;;;6.82;2.03;;;;;;;5.36;80.24;100761.81;5029287;28;20547;-24
2022/01/30 00:04:51;;;;;;;10.55;2.17;;;;;;;5.38;80.21;100783.66;5026780;28;20044;-24
2022/01/30 00:07:16;;;;;;;8.68;3.00;;;;;;;5.36;79.74;100774.91;5026257;28;20029;-24
2022/01/30 00:09:42;;;;;;;9.90;2.15;;;;;;;5.31;78.70;100774.88;5029289;28;20292;-24
2022/01/30 00:12:08;;;;;;;11.60;2.20;;;;;;;5.33;79.44;100780.13;5027006;28;20033;-24
2022/01/30 00:14:36;;;;;;;7.97;2.00;;;;;;;5.32;79.66;100766.16;5024112;28;20017;-24
2022/01/30 00:17:20;;;;;;;8.48;2.72;;;;;;;5.30;78.43;100751.31;5026802;28;20096;-24
2022/01/30 00:19:52;;;;;;;8.57;2.33;;;;;;;5.29;79.10;100753.03;5026979;28;20025;-24
2022/01/30 00:22:27;;;;;;;9.27;2.88;;;;;;;5.26;78.89;100761.72;5027752;28;20493;-23
2022/01/30 00:24:57;;;;;;;11.63;3.33;;;;;;;5.27;78.50;100762.59;5025270;28;20068;-24
2022/01/30 00:27:32;;;;;;;14.43;3.22;;;;;;;5.20;78.87;100766.84;5026219;28;20057;-24
2022/01/30 00:29:58;;;;;;;12.57;2.45;;;;;;;5.18;78.72;100768.56;5020299;28;20026;-24
2022/01/30 00:32:24;;;;;;;7.72;3.25;;;;;;;5.20;78.77;100779.91;5021245;28;20063;-24
2022/01/30 00:34:50;;;;;;;9.25;2.42;;;;;;;5.13;78.34;100796.38;5024985;28;20022;-24
2022/01/30 00:37:16;;;;;;;6.80;2.42;;;;;;;5.16;78.07;100785.97;5023679;28;20048;-24
2022/01/30 00:39:42;;;;;;;8.75;3.17;;;;;;;5.15;78.39;100768.53;5026444;28;20504;-24
2022/01/30 00:42:08;;;;;;;9.15;2.38;;;;;;;5.10;78.47;100772.81;5022388;28;20057;-24
2022/01/30 00:44:34;;;;;;;8.02;2.13;;;;;;;5.08;78.10;100772.78;5027641;28;20040;-24
2022/01/30 00:47:02;;;;;;;8.35;2.60;;;;;;;5.06;77.68;100766.63;5022388;28;20025;-24
2022/01/30 00:49:28;;;;;;;12.35;3.28;;;;;;;5.04;76.72;100754.41;5021263;28;20739;-24
2022/01/30 00:51:53;;;;;;;6.55;2.15;;;;;;;5.03;75.88;100757.88;5021572;28;20055;-22
2022/01/30 00:54:19;;;;;;;9.23;2.50;;;;;;;5.04;76.33;100754.41;5022478;28;20029;-24
2022/01/30 00:56:45;;;;;;;11.13;3.40;;;;;;;5.01;76.22;100757.84;5020994;28;20025;-21
2022/01/30 00:59:10;;;;;;;11.00;2.63;;;;;;;4.98;75.81;100737.78;5020978;28;20094;-23
2022/01/30 01:01:36;;;;;;;11.63;3.10;;;;;;;4.98;74.95;100748.25;5019263;28;20026;-24
2022/01/30 01:04:02;;;;;;;8.00;2.90;;;;;;;4.97;75.28;100758.69;5023057;28;20110;-24
2022/01/30 01:06:28;;;;;;;12.00;2.53;;;;;;;4.94;74.96;100769.94;5021758;28;20061;-24
2022/01/30 01:09:00;;;;;;;12.23;2.90;;;;;;;4.96;75.97;100769.97;5024732;28;20059;-24
2022/01/30 01:12:07;;;;;;;6.38;2.17;;;;;;;4.90;74.83;100757.69;5025284;28;20021;-24
2022/01/30 01:25:18;;;;;;;12.38;3.05;;;;;;;4.85;75.94;100772.41;5020542;28;20041;-24
2022/01/30 01:27:46;;;;;;;8.18;1.70;;;;;;;4.82;75.51;100774.97;5023716;28;20033;-24
2022/01/30 01:30:12;;;;;;;6.22;2.28;;;;;;;4.81;75.59;100773.22;5019559;28;20030;-24
2022/01/30 01:32:38;;;;;;;11.50;2.17;;;;;;;4.79;74.74;100774.91;5018482;28;20032;-24
2022/01/30 01:35:04;;;;;;;11.18;2.60;;;;;;;4.78;74.79;100773.16;5021872;28;20030;-24
2022/01/30 01:37:29;;;;;;;9.63;2.28;;;;;;;4.73;73.64;100776.59;5020629;28;20097;-24
2022/01/30 01:39:55;;;;;;;7.47;2.55;;;;;;;4.73;74.30;100787.03;5018847;28;20108;-24
2022/01/30 01:42:23;;;;;;;9.60;3.10;;;;;;;4.74;74.43;100786.19;5022079;28;20507;-24
2022/01/30 01:44:52;;;;;;;9.18;2.03;;;;;;;4.72;74.48;100794.84;5018999;28;20029;-24
2022/01/30 01:47:21;;;;;;;6.90;1.90;;;;;;;4.70;72.77;100789.59;5026096;28;20590;-24
2022/01/30 01:49:49;;;;;;;11.75;2.20;;;;;;;4.68;73.22;100765.19;5025162;28;20478;-24
2022/01/30 01:52:19;;;;;;;12.30;1.73;;;;;;;4.66;73.59;100771.22;5027216;28;20021;-24
2022/01/30 01:54:49;;;;;;;4.68;1.30;;;;;;;4.65;73.61;100772.97;5024724;28;20067;-22
2022/01/30 01:57:15;;;;;;;9.05;2.03;;;;;;;4.65;72.48;100775.59;5024625;28;20025;-23
2022/01/30 01:59:41;;;;;;;13.02;2.88;;;;;;;4.64;72.86;100771.22;5024068;28;20036;-24
2022/01/30 02:02:07;;;;;;;8.02;1.83;;;;;;;4.65;72.83;100777.31;5024259;28;20033;-25
2022/01/30 02:04:33;;;;;;;7.70;2.70;;;;;;;4.64;72.90;100786.91;5025174;28;20056;-24
2022/01/30 02:09:41;;;;;;;5.78;1.40;;;;;;;4.63;72.46;100785.13;5021723;28;20044;-24
2022/01/30 02:12:14;;;;;;;7.25;1.70;;;;;;;4.62;73.42;100783.38;5017349;28;20096;-24
2022/01/30 02:14:53;;;;;;;6.03;1.95;;;;;;;4.62;73.00;100799.03;5017674;28;20059;-24
2022/01/30 02:27:59;;;;;;;6.78;2.03;;;;;;;4.60;72.75;100764.16;5020299;28;20033;-22
2022/01/30 02:30:30;;;;;;;8.68;2.00;;;;;;;4.62;73.65;100765.06;5024318;28;20508;-24
2022/01/30 02:32:57;;;;;;;6.85;1.80;;;;;;;4.60;73.43;100748.47;5021215;28;20033;-24
2022/01/30 02:35:22;;;;;;;7.93;2.35;;;;;;;4.59;73.04;100758.06;5021541;28;20155;-24
2022/01/30 02:37:52;;;;;;;4.28;1.75;;;;;;;4.56;73.15;100744.94;5021542;28;20464;-23
2022/01/30 02:40:17;;;;;;;8.73;2.35;;;;;;;4.61;73.35;100774.63;5022255;28;20075;-22
2022/01/30 02:42:48;;;;;;;4.10;1.48;;;;;;;4.60;73.25;100766.75;5022171;28;20147;-24
2022/01/30 02:45:14;;;;;;;5.38;2.63;;;;;;;4.61;72.71;100766.78;5024966;28;20025;-24
2022/01/30 02:50:50;;;;;;;9.07;1.98;;;;;;;4.60;72.91;100738.03;5023056;28;20043;-24
2022/01/30 02:53:16;;;;;;;4.43;1.52;;;;;;;4.58;72.10;100735.41;5023569;28;20025;-25
2022/01/30 02:55:42;;;;;;;6.13;1.92;;;;;;;4.59;71.73;100728.44;5020777;28;20116;-24
2022/01/30 02:58:07;;;;;;;5.72;1.67;;;;;;;4.58;71.84;100737.16;5019728;28;20026;-23
2022/01/30 03:00:33;;;;;;;8.07;2.58;;;;;;;4.57;71.91;100722.34;5020301;28;20040;-24
2022/01/30 03:02:59;;;;;;;15.63;2.75;;;;;;;4.58;72.34;100724.97;5020531;28;20362;-25
2022/01/30 03:05:25;;;;;;;10.88;2.42;;;;;;;4.55;71.89;100734.47;5021462;28;20109;-24
2022/01/30 03:07:52;;;;;;;8.18;1.75;;;;;;;4.55;72.03;100724.91;5022047;28;20029;-24
2022/01/30 03:10:17;;;;;;;7.72;2.53;;;;;;;4.56;71.89;100723.16;5024857;28;20145;-22
2022/01/30 03:12:43;;;;;;;8.93;2.47;;;;;;;4.53;71.93;100721.38;5020910;28;20462;-24
2022/01/30 03:15:09;;;;;;;6.57;1.95;;;;;;;4.54;71.85;100733.63;5022537;28;20525;-24
2022/01/30 03:17:35;;;;;;;15.70;2.95;;;;;;;4.54;71.66;100723.16;5018717;28;20033;-24
2022/01/30 03:20:02;;;;;;;8.48;2.70;;;;;;;4.51;72.10;100717.88;5020114;28;20033;-24
2022/01/30 03:22:28;;;;;;;12.23;2.60;;;;;;;4.50;71.00;100726.56;5023226;28;20030;-24
2022/01/30 03:24:53;;;;;;;9.18;2.83;;;;;;;4.47;70.81;100730.00;5024316;28;20490;-24
2022/01/30 03:27:19;;;;;;;9.75;2.88;;;;;;;4.48;71.35;100729.16;5022005;28;20029;-24
2022/01/30 03:30:01;;;;;;;5.63;2.33;;;;;;;4.48;71.72;100747.44;5023552;28;20034;-23
2022/01/30 03:32:27;;;;;;;12.57;2.40;;;;;;;4.45;70.43;100750.00;5018380;28;20448;-24
2022/01/30 03:34:52;;;;;;;5.75;2.80;;;;;;;4.48;70.60;100770.97;5023216;28;20108;-25
2022/01/30 03:37:18;;;;;;;5.43;2.95;;;;;;;4.46;70.85;100788.31;5022436;28;20029;-24
2022/01/30 03:39:43;;;;;;;11.75;2.85;;;;;;;4.45;71.04;100765.66;5021809;28;20079;-24
2022/01/30 03:42:09;;;;;;;8.57;2.30;;;;;;;4.43;71.51;100758.66;5021281;28;20025;-24
2022/01/30 03:44:35;;;;;;;6.60;1.75;;;;;;;4.42;70.24;100757.78;5020736;28;20053;-24
2022/01/30 03:47:00;;;;;;;4.35;1.55;;;;;;;4.44;70.28;100743.00;5018657;28;20440;-23
2022/01/30 03:49:26;;;;;;;5.13;1.63;;;;;;;4.42;70.78;100734.28;5017933;28;20478;-24
2022/01/30 03:51:52;;;;;;;6.43;1.50;;;;;;;4.42;70.25;100749.94;5020639;28;20025;-24
2022/01/30 03:54:17;;;;;;;5.32;1.80;;;;;;;4.43;69.98;100756.91;5018363;28;20029;-22
2022/01/30 03:56:43;;;;;;;10.63;2.20;;;;;;;4.40;70.50;100777.75;5017088;28;20058;-24
2022/01/30 03:59:08;;;;;;;9.07;1.90;;;;;;;4.43;71.13;100776.94;5015581;28;20033;-24
2022/01/30 04:01:35;;;;;;;8.57;2.30;;;;;;;4.42;70.38;100765.63;5022507;28;20021;-24
2022/01/30 04:04:00;;;;;;;4.63;1.95;;;;;;;4.42;71.57;100770.84;5018657;28;20040;-24
2022/01/30 04:06:26;;;;;;;9.88;3.17;;;;;;;4.39;70.55;100757.72;5020288;28;20041;-24
2022/01/30 04:08:52;;;;;;;6.57;2.10;;;;;;;4.40;70.42;100767.31;5021919;28;20069;-24
2022/01/30 04:11:18;;;;;;;11.80;2.17;;;;;;;4.40;70.98;100756.84;5024120;28;20397;-24
2022/01/30 04:13:43;;;;;;;11.43;2.78;;;;;;;4.43;69.29;100763.91;5023901;28;20413;-24
2022/01/30 04:16:09;;;;;;;9.75;2.88;;;;;;;4.40;69.93;100761.22;5018517;28;20080;-25
2022/01/30 04:18:35;;;;;;;4.63;2.08;;;;;;;4.40;70.03;100767.31;5018922;28;20068;-24
2022/01/30 04:21:01;;;;;;;8.40;1.73;;;;;;;4.39;69.51;100776.00;5020830;28;20029;-24
2022/01/30 04:23:26;;;;;;;7.80;2.35;;;;;;;4.40;68.97;100771.66;5021440;28;20108;-24
2022/01/30 04:25:52;;;;;;;8.60;2.33;;;;;;;4.41;69.28;100789.09;5018506;28;20025;-24
2022/01/30 04:28:19;;;;;;;6.88;3.25;;;;;;;4.40;69.96;100800.41;5020596;28;20397;-23
2022/01/30 04:30:45;;;;;;;6.72;2.20;;;;;;;4.40;69.40;100814.31;5024288;28;20172;-24
2022/01/30 04:33:11;;;;;;;12.00;2.75;;;;;;;4.39;70.06;100811.66;5023447;28;20037;-24
2022/01/30 04:35:37;;;;;;;11.20;2.45;;;;;;;4.39;70.51;100812.56;5021476;28;20041;-24
2022/01/30 04:57:21;;;;;;;8.27;2.47;;;;;;;4.36;70.66;100802.06;5025720;28;20036;-25
2022/01/30 05:02:40;;;;;;;7.18;2.72;;;;;;;4.35;70.07;100798.59;5025260;28;20132;-24
2022/01/30 05:05:22;;;;;;;8.27;2.33;;;;;;;4.37;69.67;100785.56;5025661;28;20485;-24
2022/01/30 05:07:48;;;;;;;12.40;2.72;;;;;;;4.35;70.68;100795.06;5021527;28;20078;-24
2022/01/30 05:10:14;;;;;;;10.15;2.80;;;;;;;4.36;69.99;100791.59;5023375;28;20308;-24
2022/01/30 05:12:53;;;;;;;8.38;2.45;;;;;;;4.34;69.57;100778.53;5025735;28;20467;-24
2022/01/30 05:15:20;;;;;;;6.15;3.15;;;;;;;4.35;69.60;100787.25;5022415;28;20126;-24
2022/01/30 05:17:45;;;;;;;9.13;2.60;;;;;;;4.34;70.73;100788.09;5024020;28;20108;-24
2022/01/30 05:20:11;;;;;;;9.30;2.85;;;;;;;4.35;69.64;100792.47;5023016;28;20156;-24
2022/01/30 05:22:37;;;;;;;10.68;3.22;;;;;;;4.34;69.38;100788.09;5020789;28;20057;-24
2022/01/30 05:25:03;;;;;;;15.55;3.25;;;;;;;4.32;69.39;100795.91;5019616;28;20127;-24
2022/01/30 05:27:29;;;;;;;6.45;2.90;;;;;;;4.32;70.05;100793.28;5022009;28;20029;-23
2022/01/30 05:29:55;;;;;;;10.82;2.97;;;;;;;4.31;70.51;100806.31;5025699;28;20025;-24
2022/01/30 05:32:21;;;;;;;11.05;2.28;;;;;;;4.31;70.62;100809.81;5023968;28;20040;-24
2022/01/30 05:34:47;;;;;;;9.25;2.90;;;;;;;4.30;70.16;100805.44;5025222;28;20489;-23
2022/01/30 05:37:16;;;;;;;13.90;3.28;;;;;;;4.28;69.89;100807.16;5022965;28;20443;-24
2022/01/30 05:39:42;;;;;;;9.65;3.15;;;;;;;4.28;70.14;100796.69;5021404;28;20076;-24
2022/01/30 05:42:08;;;;;;;11.45;3.45;;;;;;;4.31;70.50;100814.16;5020642;28;20025;-24
2022/01/30 05:44:56;;;;;;;8.48;2.97;;;;;;;4.28;70.73;100834.97;5021181;28;20423;-25
2022/01/30 05:47:37;;;;;;;7.82;2.35;;;;;;;4.30;69.91;100817.63;5021206;28;20494;-25
2022/01/30 05:50:03;;;;;;;11.23;3.20;;;;;;;4.28;70.57;100821.94;5023916;28;20057;-24
2022/01/30 05:52:29;;;;;;;14.23;3.53;;;;;;;4.24;70.39;100824.47;5022937;28;20088;-24
2022/01/30 05:54:54;;;;;;;13.27;4.60;;;;;;;4.24;70.98;100814.03;5021880;28;20033;-24
2022/01/30 05:57:20;;;;;;;11.75;3.30;;;;;;;4.24;70.02;100808.81;5022871;28;20086;-24
2022/01/30 05:59:45;;;;;;;8.10;2.40;;;;;;;4.22;70.91;100804.41;5023306;28;20121;-23
2022/01/30 06:02:11;;;;;;;11.80;3.00;;;;;;;4.23;70.04;100816.59;5020670;28;20029;-23
2022/01/30 06:04:37;;;;;;;12.38;3.80;;;;;;;4.23;70.62;100820.09;5022959;28;20103;-24
2022/01/30 06:07:03;;;;;;;15.70;3.65;;;;;;;4.23;69.93;100821.81;5021320;28;20556;-24
2022/01/30 06:09:28;;;;;;;13.27;3.13;;;;;;;4.21;70.23;100819.19;5022503;28;20112;-24
2022/01/30 06:11:54;;;;;;;15.20;4.13;;;;;;;4.21;70.56;100845.28;5021453;28;20116;-25
2022/01/30 06:14:21;;;;;;;10.13;3.10;;;;;;;4.19;71.18;100856.56;5023718;28;20088;-25
2022/01/30 06:16:49;;;;;;;9.45;3.15;;;;;;;4.20;70.98;100847.91;5021699;28;20115;-24
2022/01/30 06:19:15;;;;;;;9.55;3.42;;;;;;;4.18;70.57;100845.25;5024957;28;20490;-24
2022/01/30 06:21:40;;;;;;;8.20;2.47;;;;;;;4.17;70.01;100834.78;5021330;28;20041;-24
2022/01/30 06:24:06;;;;;;;15.02;3.00;;;;;;;4.16;71.04;100846.94;5024488;28;20095;-24
2022/01/30 06:26:31;;;;;;;13.38;2.78;;;;;;;4.13;70.78;100854.72;5018803;28;20116;-24
2022/01/30 06:28:57;;;;;;;14.95;3.67;;;;;;;4.13;71.07;100844.25;5021449;28;20080;-23
2022/01/30 06:31:23;;;;;;;7.70;2.95;;;;;;;4.11;71.43;100859.88;5022693;28;20299;-23
2022/01/30 06:33:50;;;;;;;7.60;2.83;;;;;;;4.10;70.84;100846.81;5022326;28;20076;-24
2022/01/30 06:36:15;;;;;;;12.85;2.97;;;;;;;4.11;70.73;100859.03;5023010;28;20397;-24
2022/01/30 06:38:41;;;;;;;17.48;2.92;;;;;;;4.09;70.57;100837.22;5021669;28;20025;-23
2022/01/30 06:41:06;;;;;;;11.50;3.85;;;;;;;4.08;70.73;100845.91;5021543;28;20037;-25
2022/01/30 06:43:32;;;;;;;9.75;3.30;;;;;;;4.08;70.68;100848.53;5018181;28;20022;-24
2022/01/30 06:45:57;;;;;;;17.02;4.15;;;;;;;4.07;70.72;100847.63;5020088;28;20033;-24
2022/01/30 06:48:23;;;;;;;14.23;4.13;;;;;;;4.06;71.01;100860.66;5021571;28;20025;-25
2022/01/30 06:50:49;;;;;;;14.02;3.53;;;;;;;4.04;70.61;100883.25;5021004;28;20033;-25
2022/01/30 06:53:15;;;;;;;9.35;3.42;;;;;;;4.03;70.88;100871.91;5020307;28;20022;-24
2022/01/30 06:55:42;;;;;;;14.38;2.92;;;;;;;4.04;71.72;100896.28;5020810;28;20075;-23
2022/01/30 06:58:09;;;;;;;13.55;4.10;;;;;;;4.02;71.58;100880.59;5022233;28;20025;-23
2022/01/30 07:00:35;;;;;;;21.02;5.00;;;;;;;4.01;71.31;100877.94;5021636;28;20021;-23
2022/01/30 07:03:01;;;;;;;8.35;2.85;;;;;;;3.98;72.08;100892.69;5021906;28;20059;-24
2022/01/30 07:05:27;;;;;;;14.45;3.80;;;;;;;3.96;71.62;100865.69;5020117;28;20478;-24
2022/01/30 07:07:52;;;;;;;11.80;4.03;;;;;;;4.00;72.39;100891.84;5022421;28;20029;-24
2022/01/30 07:10:19;;;;;;;17.42;4.60;;;;;;;3.95;71.88;100899.59;5019871;28;20412;-24
2022/01/30 07:12:44;;;;;;;13.77;3.20;;;;;;;3.95;72.50;100869.16;5019573;28;20032;-24
2022/01/30 07:15:10;;;;;;;14.02;4.60;;;;;;;3.96;72.17;100903.94;5016177;28;20528;-24
2022/01/30 07:17:36;;;;;;;14.90;3.75;;;;;;;3.94;71.94;100940.44;5019996;28;20021;-24
2022/01/30 07:20:02;;;;;;;11.55;3.70;;;;;;;3.94;72.35;100892.59;5019219;28;20039;-24
2022/01/30 07:22:27;;;;;;;16.17;3.42;;;;;;;3.93;71.84;100940.41;5019893;28;20032;-24
2022/01/30 07:24:54;;;;;;;16.48;4.10;;;;;;;3.93;71.32;100928.25;5020250;28;20025;-24
2022/01/30 07:27:19;;;;;;;11.40;3.78;;;;;;;3.92;71.17;100931.72;5023665;28;20048;-24
2022/01/30 07:29:45;;;;;;;17.52;5.55;;;;;;;3.92;72.27;100931.72;5020197;28;20045;-24
2022/01/30 07:32:10;;;;;;;20.50;4.65;;;;;;;3.91;71.71;100931.69;5021019;28;20489;-23
2022/01/30 07:34:36;;;;;;;15.40;5.05;;;;;;;3.93;72.00;100941.31;5022713;28;21287;-23
2022/01/30 07:37:02;;;;;;;10.27;4.00;;;;;;;3.91;72.11;100950.84;5017164;28;20398;-23
2022/01/30 07:39:30;;;;;;;15.52;4.70;;;;;;;3.93;71.59;100966.50;5022810;28;20022;-24
2022/01/30 07:41:56;;;;;;;13.88;4.43;;;;;;;3.92;72.10;100964.75;5016472;28;20245;-24
2022/01/30 07:44:22;;;;;;;16.27;5.00;;;;;;;3.92;72.08;100968.25;5016746;28;20114;-24
2022/01/30 07:46:48;;;;;;;16.42;3.78;;;;;;;3.91;71.39;100981.25;5020657;28;20120;-24
2022/01/30 07:49:13;;;;;;;13.40;3.38;;;;;;;3.91;71.59;100986.47;5023342;28;20029;-24
2022/01/30 07:51:39;;;;;;;17.13;4.50;;;;;;;3.94;70.93;100992.66;5015846;28;20037;-25
2022/01/30 07:54:05;;;;;;;19.27;3.92;;;;;;;3.96;70.90;100993.56;5016488;28;20022;-23
2022/01/30 07:56:30;;;;;;;16.48;3.38;;;;;;;3.94;70.68;100989.16;5023185;28;20144;-24
2022/01/30 07:58:56;;;;;;;15.68;3.55;;;;;;;3.94;71.20;100990.03;5022027;28;20055;-24
2022/01/30 08:01:21;;;;;;;18.70;3.83;;;;;;;3.95;70.93;100973.56;5023376;28;20033;-24
2022/01/30 08:03:47;;;;;;;13.00;3.95;;;;;;;3.97;71.16;100997.94;5026306;28;20042;-24
2022/01/30 08:06:12;;;;;;;16.75;5.03;;;;;;;3.96;70.45;101006.63;5021684;28;20049;-24
2022/01/30 08:08:38;;;;;;;14.90;4.05;;;;;;;3.97;70.54;101013.59;5023227;28;20029;-24
2022/01/30 08:11:04;;;;;;;19.38;4.88;;;;;;;3.98;70.70;101015.34;5025663;28;20381;-24
2022/01/30 08:13:29;;;;;;;18.92;5.22;;;;;;;4.02;71.41;101033.72;5026091;28;20120;-23
2022/01/30 08:15:55;;;;;;;16.90;3.97;;;;;;;4.03;70.69;101022.44;5026343;28;20112;-24
2022/01/30 08:18:20;;;;;;;16.45;4.32;;;;;;;4.04;71.64;101022.44;5026291;28;20022;-23
2022/01/30 08:20:46;;;;;;;15.50;3.97;;;;;;;4.05;70.69;101007.69;5024380;28;20025;-24
2022/01/30 08:23:13;;;;;;;16.48;4.50;;;;;;;4.06;70.89;101039.03;5029430;28;20163;-24
2022/01/30 08:25:39;;;;;;;19.08;4.55;;;;;;;4.07;70.16;101030.34;5027977;28;20026;-24
2022/01/30 08:28:05;;;;;;;13.73;3.88;;;;;;;4.09;70.48;101022.56;5025901;28;20072;-24
2022/01/30 08:30:31;;;;;;;15.65;4.18;;;;;;;4.08;70.78;101057.34;5026805;28;20033;-24
2022/01/30 08:32:58;;;;;;;16.08;4.65;;;;;;;4.11;71.11;101033.94;5027654;28;20025;-24
2022/01/30 08:35:24;;;;;;;17.25;4.15;;;;;;;4.13;70.29;101050.50;5026162;28;20033;-25
2022/01/30 08:37:50;;;;;;;15.93;4.95;;;;;;;4.14;70.21;101046.19;5027897;28;20021;-24
2022/01/30 08:40:17;;;;;;;14.18;3.90;;;;;;;4.16;69.68;101047.06;5025003;28;20478;-24
2022/01/30 08:42:44;;;;;;;13.52;3.83;;;;;;;4.17;69.77;101068.00;5022589;28;20029;-23
2022/01/30 08:45:12;;;;;;;11.80;4.05;;;;;;;4.19;69.31;101066.31;5025830;28;20033;-24
2022/01/30 08:47:39;;;;;;;17.02;4.75;;;;;;;4.20;69.49;101057.63;5027717;28;20029;-24
2022/01/30 08:50:05;;;;;;;18.02;4.38;;;;;;;4.22;69.89;101092.50;5025250;28;20087;-24
2022/01/30 08:52:31;;;;;;;18.50;4.78;;;;;;;4.23;69.85;101099.50;5026247;28;20053;-24
2022/01/30 08:54:57;;;;;;;16.05;4.60;;;;;;;4.22;70.29;101092.50;5026800;28;20063;-23
2022/01/30 08:57:22;;;;;;;16.38;4.57;;;;;;;4.20;70.38;101096.81;5028736;28;20104;-24
2022/01/30 08:59:48;;;;;;;16.10;3.55;;;;;;;4.23;70.62;101104.72;5026313;28;20033;-25
2022/01/30 09:02:14;;;;;;;13.45;5.20;;;;;;;4.23;70.27;101107.31;5025031;28;20401;-23
2022/01/30 09:04:39;;;;;;;14.27;4.50;;;;;;;4.24;69.84;101116.06;5025985;28;20037;-24
2022/01/30 09:07:05;;;;;;;19.33;4.00;;;;;;;4.20;70.20;101106.38;5026265;28;20040;-24
2022/01/30 09:09:30;;;;;;;13.40;4.13;;;;;;;4.29;69.96;101114.44;5026792;28;20112;-24
2022/01/30 09:12:02;;;;;;;14.25;3.80;;;;;;;4.29;70.54;101123.97;5026013;28;20385;-25
2022/01/30 09:14:29;;;;;;;16.92;4.10;;;;;;;4.30;70.05;101112.72;5023205;28;20465;-24
2022/01/30 09:16:55;;;;;;;18.88;5.53;;;;;;;4.30;70.01;101113.56;5026666;28;20022;-24
2022/01/30 09:19:20;;;;;;;18.38;4.63;;;;;;;4.31;70.74;101109.25;5025512;28;20029;-22
2022/01/30 09:21:46;;;;;;;20.48;4.72;;;;;;;4.34;70.79;101122.38;5026214;28;20474;-24
2022/01/30 09:24:13;;;;;;;18.70;5.68;;;;;;;4.33;69.80;101123.22;5025346;28;20091;-25
2022/01/30 09:26:38;;;;;;;14.63;4.88;;;;;;;4.35;69.57;101122.41;5025690;28;20026;-24
2022/01/30 09:29:04;;;;;;;17.27;4.13;;;;;;;4.38;69.60;101125.94;5025427;28;20032;-24
2022/01/30 09:31:29;;;;;;;21.10;4.80;;;;;;;4.38;69.01;101121.59;5025458;28;20033;-24
2022/01/30 09:33:55;;;;;;;19.08;4.57;;;;;;;4.39;68.40;101120.75;5025309;28;20033;-24
2022/01/30 09:36:20;;;;;;;14.27;5.20;;;;;;;4.39;69.24;101107.69;5024370;28;20041;-24
2022/01/30 09:38:46;;;;;;;14.25;4.32;;;;;;;4.39;69.48;101110.31;5024426;28;20021;-24
2022/01/30 09:41:11;;;;;;;22.75;4.35;;;;;;;4.40;68.83;101106.84;5022550;28;20029;-25
2022/01/30 09:43:37;;;;;;;16.20;4.30;;;;;;;4.41;69.50;101126.91;5022648;28;20056;-24
2022/01/30 09:46:03;;;;;;;22.48;4.70;;;;;;;4.44;69.38;101105.19;5024818;28;20043;-25
2022/01/30 09:48:32;;;;;;;15.82;5.00;;;;;;;4.44;69.20;101119.13;5024454;28;20029;-24
2022/01/30 09:50:58;;;;;;;19.08;6.00;;;;;;;4.45;69.06;101135.69;5023663;28;20108;-24
2022/01/30 09:53:23;;;;;;;17.65;4.07;;;;;;;4.47;68.60;101140.09;5022159;28;20039;-24
2022/01/30 09:55:49;;;;;;;19.30;4.40;;;;;;;4.51;68.44;101146.28;5026498;28;20029;-25
2022/01/30 09:58:14;;;;;;;17.27;4.22;;;;;;;4.52;69.59;101152.38;5023424;28;20433;-22
2022/01/30 10:00:40;;;;;;;17.67;4.60;;;;;;;4.53;69.53;101154.16;5022956;28;20041;-23
2022/01/30 10:03:06;;;;;;;14.20;4.53;;;;;;;4.56;69.66;101159.44;5023234;28;20032;-24
2022/01/30 10:05:35;;;;;;;25.70;5.72;;;;;;;4.57;69.14;101151.63;5022725;28;20029;-24
2022/01/30 10:08:03;;;;;;;18.77;5.13;;;;;;;4.57;69.32;101161.22;5020604;28;20374;-25
2022/01/30 10:10:29;;;;;;;10.25;4.90;;;;;;;4.59;69.01;101168.25;5020243;28;20037;-24
2022/01/30 10:13:12;;;;;;;24.50;4.50;;;;;;;4.61;68.55;101163.91;5023293;28;21323;-24
2022/01/30 10:15:56;;;;;;;16.40;5.70;;;;;;;4.64;68.74;101173.59;5024315;28;20444;-24
2022/01/30 10:18:23;;;;;;;17.85;5.32;;;;;;;4.65;68.45;101171.84;5024301;28;20026;-24
2022/01/30 10:20:49;;;;;;;19.00;6.38;;;;;;;4.67;68.00;101172.78;5021570;28;20189;-23
2022/01/30 10:23:15;;;;;;;18.00;4.80;;;;;;;4.68;68.43;101177.16;5021497;28;20045;-24
2022/01/30 10:25:47;;;;;;;17.98;4.50;;;;;;;4.71;68.68;101185.06;5021006;28;20112;-24
2022/01/30 10:28:15;;;;;;;15.75;4.85;;;;;;;4.71;68.39;101183.31;5019885;28;20025;-25
2022/01/30 10:30:44;;;;;;;13.30;4.95;;;;;;;4.70;68.79;101176.31;5021069;28;20028;-24
2022/01/30 10:33:12;;;;;;;21.40;5.45;;;;;;;4.72;68.61;101182.50;5021514;28;20030;-24
2022/01/30 10:35:53;;;;;;;19.27;6.10;;;;;;;4.75;68.68;101192.13;5022091;28;20033;-24
2022/01/30 10:38:33;;;;;;;23.73;4.68;;;;;;;4.75;68.40;101185.19;5018301;28;20029;-24
2022/01/30 10:41:11;;;;;;;16.42;3.75;;;;;;;4.77;69.03;101186.94;5019936;28;20437;-24
2022/01/30 10:44:04;;;;;;;21.65;5.22;;;;;;;4.78;68.58;101171.28;5023611;28;20112;-24
2022/01/30 10:46:42;;;;;;;23.40;4.28;;;;;;;4.79;67.51;101190.44;5020964;28;20124;-23
2022/01/30 10:49:09;;;;;;;16.17;4.80;;;;;;;4.81;68.62;101187.06;5019856;28;20100;-24
2022/01/30 10:51:35;;;;;;;23.63;4.07;;;;;;;4.79;68.46;101180.00;5022008;28;20025;-24
2022/01/30 10:54:19;;;;;;;15.38;4.15;;;;;;;4.81;69.03;101176.59;5020012;28;20029;-24
2022/01/30 10:56:45;;;;;;;13.63;4.32;;;;;;;4.82;68.83;101180.97;5018908;28;20033;-24
2022/01/30 10:59:15;;;;;;;18.40;6.13;;;;;;;4.82;67.33;101178.34;5017836;28;20021;-24
2022/01/30 11:01:43;;;;;;;21.75;4.63;;;;;;;4.82;68.22;101183.59;5019923;28;20021;-24
2022/01/30 11:04:28;;;;;;;21.30;4.07;;;;;;;4.83;67.97;101189.66;5021232;28;20332;-24
2022/01/30 11:06:59;;;;;;;15.55;4.55;;;;;;;4.85;67.17;101198.44;5018692;28;20025;-23
2022/01/30 11:09:49;;;;;;;16.77;4.65;;;;;;;4.87;66.96;101186.31;5023355;28;20029;-25
2022/01/30 11:12:15;;;;;;;15.60;5.03;;;;;;;4.83;67.99;101210.59;5019312;28;20421;-24
2022/01/30 11:17:19;;;;;;;25.35;4.90;;;;;;;4.87;68.03;101205.47;5019514;28;20041;-24
2022/01/30 11:19:48;;;;;;;15.82;5.50;;;;;;;4.88;67.57;101219.44;5018387;28;20468;-24
2022/01/30 11:22:20;;;;;;;18.08;4.70;;;;;;;4.91;68.03;101229.06;5021089;28;20059;-25
2022/01/30 11:24:57;;;;;;;17.25;4.72;;;;;;;4.91;69.49;101226.47;5018492;28;20486;-24
2022/01/30 11:27:23;;;;;;;20.40;4.82;;;;;;;4.90;67.99;101228.19;5019405;28;20025;-24
2022/01/30 11:29:50;;;;;;;15.48;5.03;;;;;;;4.90;67.21;101225.56;5018758;28;20528;-24
2022/01/30 11:32:17;;;;;;;18.30;5.25;;;;;;;4.91;67.50;101223.84;5015040;28;20030;-24
2022/01/30 11:34:44;;;;;;;19.85;4.80;;;;;;;4.93;66.89;101240.47;5021779;28;20025;-24
2022/01/30 11:37:13;;;;;;;17.33;4.90;;;;;;;4.95;67.76;101242.25;5002214;28;20037;-23
2022/01/30 11:39:47;;;;;;;29.38;5.78;;;;;;;4.95;67.29;101252.72;5021653;28;20100;-23
2022/01/30 11:42:21;;;;;;;14.20;4.90;;;;;;;4.93;68.00;101253.53;5022249;28;20045;-25
2022/01/30 11:44:48;;;;;;;27.08;5.95;;;;;;;4.95;67.77;101250.09;5026363;28;20022;-25
2022/01/30 11:47:17;;;;;;;15.32;4.70;;;;;;;4.98;68.64;101267.59;5026022;28;20029;-24
2022/01/30 11:49:45;;;;;;;17.80;4.88;;;;;;;4.96;67.54;101264.94;5023260;28;20025;-24
2022/01/30 11:52:13;;;;;;;24.00;5.43;;;;;;;4.98;67.57;101259.75;5027573;28;20033;-25
2022/01/30 11:54:40;;;;;;;24.48;5.65;;;;;;;4.98;67.28;101267.59;5022891;28;20379;-24
2022/01/30 11:57:20;;;;;;;19.58;5.40;;;;;;;4.99;68.47;101270.25;5024689;28;20060;-24
2022/01/30 12:00:02;;;;;;;16.30;5.50;;;;;;;5.00;68.37;101268.50;5023657;28;20367;-24
2022/01/30 12:02:35;;;;;;;18.55;5.53;;;;;;;4.99;67.77;101278.09;5028009;28;20565;-24
2022/01/30 12:05:02;;;;;;;21.80;5.05;;;;;;;5.00;67.92;101277.22;5021565;28;20025;-24
2022/01/30 12:07:34;;;;;;;24.00;5.38;;;;;;;5.03;67.92;101273.78;5026251;28;20087;-24
2022/01/30 12:10:25;;;;;;;;;;;;;;;4.99;66.98;101285.94;5025180;28;20064;-25
2022/01/30 12:12:52;;;;;;;;;;;;;;;5.04;67.59;101285.16;5023151;28;20002;-24
2022/01/30 12:15:44;;;;;;;21.52;5.68;;;;;;;5.01;67.83;101284.22;5024989;28;19920;-22
2022/01/30 12:18:20;;;;;;;28.38;5.18;;;;;;;5.00;67.67;101272.00;5024506;28;20046;-24
2022/01/30 12:21:13;;;;;;;26.08;6.57;;;;;;;5.03;67.03;101286.88;5026933;28;20159;-24
2022/01/30 12:23:41;;;;;;;25.63;6.43;;;;;;;5.05;67.50;101285.19;5024187;28;20029;-24
2022/01/30 12:26:14;;;;;;;21.13;5.88;;;;;;;5.03;67.77;101292.09;5024334;28;20448;-24